Taylor, Idaho
Current Conditions -  °F | °C
As of 4:43 PM on Saturday 22 Nov 2014 (Local Time) from KIDA Reporting Station
Scattered Clouds Scattered Clouds  
Wind Chill: 28°   Ceiling: Unl
Heat Index: 37°   Visibility: 10mi
Dew Point: 34°   Wind: 14mph
Humidity: 89%   Direction: 230°SW
Pressure: 29.69"   Gusts: NA
Location:  43.498°N, 111.73°W
Report Text: KIDA 222343Z 23012KT 10SM SCT007 SCT075 03/01 A2969 RMK AO2 T00280011
Loading
Personal Weather Stations






























Interactive Weather Map New forecast layout! Learn more

10-Day Weather Forecast

Advertisements
Track Severe Weather on mobile